createdAt,value
2018-12-16T00:01:46.653Z,-3.50
2018-12-16T00:07:05.284Z,-3.50
2018-12-16T00:12:20.126Z,-3.60
2018-12-16T00:17:39.124Z,-3.60
2018-12-16T00:22:52.390Z,-3.60
2018-12-16T00:28:10.507Z,-3.60
2018-12-16T00:33:24.042Z,-3.50
2018-12-16T00:38:43.608Z,-3.50
2018-12-16T00:44:15.223Z,-3.50
2018-12-16T00:55:03.561Z,-3.30
2018-12-16T01:00:23.905Z,-3.30
2018-12-16T01:05:47.046Z,-3.30
2018-12-16T01:11:05.740Z,-3.20
2018-12-16T01:16:25.026Z,-3.10
2018-12-16T01:21:38.723Z,-3.10
2018-12-16T01:37:43.262Z,-2.90
2018-12-16T01:42:47.412Z,-2.90
2018-12-16T01:47:51.442Z,-2.90
2018-12-16T01:52:54.938Z,-2.90
2018-12-16T01:57:58.440Z,-2.90
2018-12-16T02:03:03.006Z,-2.90
2018-12-16T02:08:06.846Z,-2.90
2018-12-16T02:13:10.383Z,-2.80
2018-12-16T02:18:13.947Z,-2.80
2018-12-16T02:23:18.832Z,-2.90
2018-12-16T02:28:23.365Z,-2.90
2018-12-16T02:33:26.937Z,-2.90
2018-12-16T02:38:30.447Z,-2.90
2018-12-16T02:51:07.656Z,-2.90
2018-12-16T02:56:11.828Z,-2.90
2018-12-16T03:01:16.394Z,-2.90
2018-12-16T03:06:19.910Z,-2.90
2018-12-16T03:11:23.368Z,-2.90
2018-12-16T03:16:26.832Z,-2.80
2018-12-16T03:21:30.595Z,-2.80
2018-12-16T03:26:36.175Z,-2.80
2018-12-16T03:31:40.450Z,-2.80
2018-12-16T03:36:44.320Z,-2.90
2018-12-16T03:41:48.212Z,-2.90
2018-12-16T03:46:52.259Z,-2.90
2018-12-16T03:51:56.311Z,-2.90
2018-12-16T03:56:59.799Z,-2.90
2018-12-16T04:02:03.421Z,-2.90
2018-12-16T04:07:07.050Z,-2.90
2018-12-16T04:12:10.539Z,-2.90
2018-12-16T04:17:14.107Z,-2.90
2018-12-16T04:22:17.921Z,-3.00
2018-12-16T04:27:21.457Z,-3.00
2018-12-16T04:32:25.974Z,-3.00
2018-12-16T04:37:29.850Z,-3.00
2018-12-16T04:42:34.841Z,-3.00
2018-12-16T04:47:38.465Z,-3.00
2018-12-16T04:52:41.950Z,-2.90
2018-12-16T04:57:46.296Z,-2.90
2018-12-16T05:02:49.918Z,-2.90
2018-12-16T05:07:53.394Z,-2.80
2018-12-16T05:12:57.009Z,-2.70
2018-12-16T05:18:00.497Z,-2.70
2018-12-16T05:23:04.348Z,-2.60
2018-12-16T05:28:08.188Z,-2.60
2018-12-16T05:33:13.231Z,-2.60
2018-12-16T05:38:17.115Z,-2.60
2018-12-16T05:43:21.169Z,-2.60
2018-12-16T05:48:25.153Z,-2.60
2018-12-16T05:53:28.653Z,-2.70
2018-12-16T05:58:32.185Z,-2.80
2018-12-16T06:03:38.256Z,-2.90
2018-12-16T06:08:42.544Z,-2.90
2018-12-16T06:13:46.703Z,-3.00
2018-12-16T06:18:50.656Z,-3.00
2018-12-16T06:23:55.785Z,-3.00
2018-12-16T06:28:59.507Z,-3.00
2018-12-16T06:34:05.044Z,-3.00
2018-12-16T06:39:09.108Z,-3.00
2018-12-16T06:44:13.303Z,-2.90
2018-12-16T06:49:17.041Z,-2.90
2018-12-16T06:54:20.637Z,-2.90
2018-12-16T06:59:24.112Z,-2.80
2018-12-16T07:04:27.885Z,-2.80
2018-12-16T07:09:31.388Z,-2.80
2018-12-16T07:14:34.924Z,-2.70
2018-12-16T07:19:38.778Z,-2.80
2018-12-16T07:24:42.430Z,-2.70
2018-12-16T07:29:45.938Z,-2.60
2018-12-16T07:34:49.603Z,-2.60
2018-12-16T07:39:53.206Z,-2.50
2018-12-16T07:44:57.052Z,-2.40
2018-12-16T07:50:00.907Z,-2.30
2018-12-16T07:55:05.943Z,-2.20
2018-12-16T08:00:11.182Z,-2.10
2018-12-16T08:05:14.761Z,-1.90
2018-12-16T08:10:18.349Z,-1.80
2018-12-16T08:15:24.426Z,-1.60
2018-12-16T08:20:28.436Z,-1.50
2018-12-16T08:25:32.782Z,-1.30
2018-12-16T08:30:37.618Z,-1.10
2018-12-16T08:35:41.192Z,-1.00
2018-12-16T08:40:45.010Z,-0.90
2018-12-16T08:45:49.022Z,-0.80
2018-12-16T08:50:55.097Z,-0.80
2018-12-16T08:55:59.434Z,-0.60
2018-12-16T09:01:03.642Z,-0.20
2018-12-16T09:06:07.509Z,0.40
2018-12-16T09:11:11.704Z,0.90
2018-12-16T09:21:54.082Z,1.00
2018-12-16T09:26:58.254Z,0.80
2018-12-16T09:32:02.850Z,0.80
2018-12-16T09:37:08.024Z,1.00
2018-12-16T09:42:12.122Z,1.40
2018-12-16T09:47:16.134Z,2.10
2018-12-16T09:52:20.652Z,2.40
2018-12-16T09:57:24.365Z,2.50
2018-12-16T10:02:27.947Z,2.40
2018-12-16T10:07:31.615Z,2.60
2018-12-16T10:12:35.215Z,2.70
2018-12-16T10:17:39.654Z,2.60
2018-12-16T10:22:43.184Z,2.40
2018-12-16T10:27:46.759Z,2.00
2018-12-16T10:32:50.254Z,2.30
2018-12-16T10:37:54.129Z,2.70
2018-12-16T10:42:58.319Z,2.90
2018-12-16T10:48:02.552Z,3.20
2018-12-16T10:53:07.670Z,3.10
2018-12-16T10:58:11.484Z,3.20
2018-12-16T11:03:14.999Z,3.10
2018-12-16T11:08:18.833Z,3.20
2018-12-16T11:13:22.596Z,3.60
2018-12-16T11:18:27.006Z,4.10
2018-12-16T11:23:31.232Z,4.30
2018-12-16T11:28:36.843Z,4.10
2018-12-16T11:33:40.592Z,3.70
2018-12-16T11:38:44.280Z,3.90
2018-12-16T11:43:55.247Z,4.20
2018-12-16T11:48:59.008Z,4.40
2018-12-16T11:54:03.500Z,4.60
2018-12-16T11:59:07.364Z,4.10
2018-12-16T12:04:11.352Z,4.50
2018-12-16T12:09:15.085Z,4.30
2018-12-16T12:14:19.155Z,4.10
2018-12-16T12:19:23.743Z,4.10
2018-12-16T12:24:27.196Z,4.30
2018-12-16T12:29:30.757Z,4.30
2018-12-16T12:34:34.291Z,4.40
2018-12-16T12:39:37.871Z,4.50
2018-12-16T12:44:41.527Z,4.30
2018-12-16T12:49:45.394Z,4.20
2018-12-16T12:54:49.059Z,4.30
2018-12-16T12:59:52.661Z,4.20
2018-12-16T13:04:56.470Z,4.10
2018-12-16T13:10:00.767Z,3.90
2018-12-16T13:15:05.405Z,4.30
2018-12-16T13:20:10.082Z,4.50
2018-12-16T13:25:24.628Z,4.80
2018-12-16T13:30:28.215Z,5.10
2018-12-16T13:35:31.698Z,5.20
2018-12-16T13:40:35.884Z,5.30
2018-12-16T13:45:39.436Z,5.20
2018-12-16T13:50:42.991Z,5.10
2018-12-16T13:55:48.272Z,4.90
2018-12-16T14:00:52.229Z,5.20
2018-12-16T14:05:56.530Z,5.30
2018-12-16T14:11:00.783Z,5.10
2018-12-16T14:16:04.733Z,5.10
2018-12-16T14:21:08.757Z,5.10
2018-12-16T14:26:14.344Z,4.70
2018-12-16T14:31:18.122Z,4.20
2018-12-16T14:36:22.122Z,3.90
2018-12-16T14:41:25.747Z,3.80
2018-12-16T14:46:30.058Z,3.70
2018-12-16T14:51:33.916Z,3.50
2018-12-16T14:56:37.726Z,3.40
2018-12-16T15:01:42.470Z,3.20
2018-12-16T15:06:47.061Z,2.90
2018-12-16T15:11:50.650Z,2.40
2018-12-16T15:16:54.283Z,1.80
2018-12-16T15:21:57.893Z,1.40
2018-12-16T15:27:01.636Z,1.00
2018-12-16T15:32:05.626Z,0.80
2018-12-16T15:37:09.669Z,0.50
2018-12-16T15:42:14.139Z,0.30
2018-12-16T15:47:17.859Z,0.20
2018-12-16T15:52:22.453Z,0.10
2018-12-16T15:57:26.124Z,0.20
2018-12-16T16:02:29.949Z,0.30
2018-12-16T16:07:33.454Z,0.40
2018-12-16T16:12:37.351Z,0.60
2018-12-16T16:17:41.011Z,0.60
2018-12-16T16:22:44.604Z,0.90
2018-12-16T16:27:48.191Z,1.20
2018-12-16T16:32:52.103Z,1.40
2018-12-16T16:38:00.604Z,1.50
2018-12-16T16:43:03.020Z,1.50
2018-12-16T16:48:06.519Z,1.50
2018-12-16T16:53:11.077Z,1.50
2018-12-16T16:58:14.554Z,1.60
2018-12-16T17:03:19.094Z,1.50
2018-12-16T17:08:24.055Z,1.60
2018-12-16T17:13:27.853Z,1.60
2018-12-16T17:18:32.041Z,1.60
2018-12-16T17:23:35.683Z,1.50
2018-12-16T17:28:39.264Z,1.50
2018-12-16T17:41:16.731Z,1.50
2018-12-16T17:46:20.544Z,1.50
2018-12-16T17:51:27.037Z,1.50
2018-12-16T17:56:36.989Z,1.40
2018-12-16T18:01:38.056Z,1.40
2018-12-16T18:06:41.855Z,1.40
2018-12-16T18:11:45.794Z,1.40
2018-12-16T18:16:50.972Z,1.40
2018-12-16T18:21:55.907Z,1.30
2018-12-16T18:26:59.748Z,1.10
2018-12-16T18:32:05.609Z,0.80
2018-12-16T18:37:09.860Z,0.60
2018-12-16T18:42:14.384Z,0.20
2018-12-16T18:47:17.941Z,-0.20
2018-12-16T18:52:21.602Z,-0.40
2018-12-16T18:57:25.072Z,-0.60
2018-12-16T19:02:29.126Z,-0.70
2018-12-16T19:07:33.086Z,-0.60
2018-12-16T19:12:36.586Z,-0.30
2018-12-16T19:17:40.605Z,-0.10
2018-12-16T19:22:44.855Z,0.10
2018-12-16T19:27:49.041Z,0.20
2018-12-16T19:32:53.135Z,0.50
2018-12-16T19:37:57.821Z,0.60
2018-12-16T19:43:03.368Z,0.80
2018-12-16T19:48:07.668Z,0.80
2018-12-16T19:53:12.404Z,0.80
2018-12-16T19:58:16.698Z,0.80
2018-12-16T20:03:21.185Z,0.80
2018-12-16T20:08:24.896Z,0.80
2018-12-16T20:13:28.647Z,0.80
2018-12-16T20:18:32.397Z,0.80
2018-12-16T20:23:35.982Z,0.80
2018-12-16T20:28:39.452Z,0.80
2018-12-16T20:33:43.757Z,0.80
2018-12-16T20:38:48.043Z,0.80
2018-12-16T20:43:52.040Z,0.80
2018-12-16T20:48:56.434Z,0.80
2018-12-16T20:54:00.420Z,0.70
2018-12-16T20:59:04.365Z,0.60
2018-12-16T21:04:08.025Z,0.50
2018-12-16T21:09:11.971Z,0.40
2018-12-16T21:14:21.199Z,0.20
2018-12-16T21:19:25.292Z,0.10
2018-12-16T21:24:29.144Z,-0.10
2018-12-16T21:29:33.271Z,-0.30
2018-12-16T21:34:36.749Z,-0.50
2018-12-16T21:39:40.537Z,-0.70
2018-12-16T21:44:44.512Z,-0.90
2018-12-16T21:49:48.818Z,-1.00
2018-12-16T21:54:52.818Z,-1.00
2018-12-16T21:59:56.707Z,-1.00
2018-12-16T22:05:01.260Z,-0.80
2018-12-16T22:10:05.310Z,-0.70
2018-12-16T22:15:09.196Z,-0.50
2018-12-16T22:20:13.950Z,-0.30
2018-12-16T22:25:18.161Z,-0.20
2018-12-16T22:30:22.061Z,0.00
2018-12-16T22:35:26.310Z,0.10
2018-12-16T22:40:29.772Z,0.20
2018-12-16T22:45:33.264Z,0.20
2018-12-16T22:50:36.815Z,0.10
2018-12-16T22:55:40.333Z,-0.10
2018-12-16T23:00:49.529Z,-0.30
2018-12-16T23:05:53.377Z,-0.50
2018-12-16T23:10:56.874Z,-0.70
2018-12-16T23:16:00.399Z,-1.00
2018-12-16T23:21:04.118Z,-1.30
2018-12-16T23:26:08.084Z,-1.40
2018-12-16T23:31:12.337Z,-1.60
2018-12-16T23:36:16.195Z,-1.70
2018-12-16T23:41:20.294Z,-1.80
2018-12-16T23:46:24.291Z,-2.00
2018-12-16T23:51:27.756Z,-2.30
2018-12-16T23:56:31.256Z,-2.50
